sensor_id;sensor_type;location;lat;lon;timestamp;P1;durP1;ratioP1;P2;durP2;ratioP2
19043;SDS011;9654;52.302;8.120;2023-02-16T00:01:45;36.33;;;16.97;;
19043;SDS011;9654;52.302;8.120;2023-02-16T00:04:14;35.67;;;18.07;;
19043;SDS011;9654;52.302;8.120;2023-02-16T00:06:43;42.03;;;18.57;;
19043;SDS011;9654;52.302;8.120;2023-02-16T00:09:10;33.23;;;16.60;;
19043;SDS011;9654;52.302;8.120;2023-02-16T00:11:38;43.27;;;20.43;;
19043;SDS011;9654;52.302;8.120;2023-02-16T00:14:23;41.07;;;19.27;;
19043;SDS011;9654;52.302;8.120;2023-02-16T00:16:51;43.87;;;19.43;;
19043;SDS011;9654;52.302;8.120;2023-02-16T00:19:19;42.03;;;20.07;;
19043;SDS011;9654;52.302;8.120;2023-02-16T00:21:47;41.93;;;18.30;;
19043;SDS011;9654;52.302;8.120;2023-02-16T00:24:15;42.93;;;19.00;;
19043;SDS011;9654;52.302;8.120;2023-02-16T00:26:44;44.50;;;21.20;;
19043;SDS011;9654;52.302;8.120;2023-02-16T00:29:13;47.70;;;22.03;;
19043;SDS011;9654;52.302;8.120;2023-02-16T00:31:43;44.97;;;21.07;;
19043;SDS011;9654;52.302;8.120;2023-02-16T00:36:54;45.50;;;21.00;;
19043;SDS011;9654;52.302;8.120;2023-02-16T00:39:21;54.70;;;22.80;;
19043;SDS011;9654;52.302;8.120;2023-02-16T00:41:51;45.90;;;21.80;;
19043;SDS011;9654;52.302;8.120;2023-02-16T00:44:20;44.20;;;21.00;;
19043;SDS011;9654;52.302;8.120;2023-02-16T00:46:52;52.60;;;21.00;;
19043;SDS011;9654;52.302;8.120;2023-02-16T00:49:20;48.93;;;22.50;;
19043;SDS011;9654;52.302;8.120;2023-02-16T00:51:47;44.00;;;21.90;;
19043;SDS011;9654;52.302;8.120;2023-02-16T00:54:15;44.87;;;21.87;;
19043;SDS011;9654;52.302;8.120;2023-02-16T00:56:43;45.63;;;22.10;;
19043;SDS011;9654;52.302;8.120;2023-02-16T00:59:13;50.50;;;22.47;;
19043;SDS011;9654;52.302;8.120;2023-02-16T01:01:43;46.63;;;22.17;;
19043;SDS011;9654;52.302;8.120;2023-02-16T01:04:11;45.33;;;22.13;;
19043;SDS011;9654;52.302;8.120;2023-02-16T01:06:44;49.10;;;23.57;;
19043;SDS011;9654;52.302;8.120;2023-02-16T01:09:28;43.73;;;20.93;;
19043;SDS011;9654;52.302;8.120;2023-02-16T01:12:13;48.03;;;21.30;;
19043;SDS011;9654;52.302;8.120;2023-02-16T01:14:43;48.43;;;21.73;;
19043;SDS011;9654;52.302;8.120;2023-02-16T01:17:12;50.20;;;21.77;;
19043;SDS011;9654;52.302;8.120;2023-02-16T01:19:39;46.60;;;23.47;;
19043;SDS011;9654;52.302;8.120;2023-02-16T01:22:06;51.87;;;23.10;;
19043;SDS011;9654;52.302;8.120;2023-02-16T01:24:33;45.83;;;22.77;;
19043;SDS011;9654;52.302;8.120;2023-02-16T01:27:00;41.57;;;22.07;;
19043;SDS011;9654;52.302;8.120;2023-02-16T01:29:27;47.97;;;23.60;;
19043;SDS011;9654;52.302;8.120;2023-02-16T01:31:55;54.40;;;23.07;;
19043;SDS011;9654;52.302;8.120;2023-02-16T01:34:22;46.60;;;22.73;;
19043;SDS011;9654;52.302;8.120;2023-02-16T01:36:49;45.67;;;22.43;;
19043;SDS011;9654;52.302;8.120;2023-02-16T01:39:17;50.97;;;23.40;;
19043;SDS011;9654;52.302;8.120;2023-02-16T01:41:50;48.30;;;23.10;;
19043;SDS011;9654;52.302;8.120;2023-02-16T01:44:34;47.73;;;23.33;;
19043;SDS011;9654;52.302;8.120;2023-02-16T01:47:18;46.90;;;21.23;;
19043;SDS011;9654;52.302;8.120;2023-02-16T01:49:55;46.20;;;22.90;;
19043;SDS011;9654;52.302;8.120;2023-02-16T01:52:24;53.20;;;23.67;;
19043;SDS011;9654;52.302;8.120;2023-02-16T01:54:57;46.27;;;22.03;;
19043;SDS011;9654;52.302;8.120;2023-02-16T01:57:32;49.27;;;22.03;;
19043;SDS011;9654;52.302;8.120;2023-02-16T02:00:06;43.83;;;21.03;;
19043;SDS011;9654;52.302;8.120;2023-02-16T02:03:08;49.87;;;23.07;;
19043;SDS011;9654;52.302;8.120;2023-02-16T02:05:55;48.53;;;21.83;;
19043;SDS011;9654;52.302;8.120;2023-02-16T02:08:23;49.37;;;22.50;;
19043;SDS011;9654;52.302;8.120;2023-02-16T02:11:00;43.90;;;22.70;;
19043;SDS011;9654;52.302;8.120;2023-02-16T02:13:35;51.33;;;22.47;;
19043;SDS011;9654;52.302;8.120;2023-02-16T02:16:06;41.83;;;22.30;;
19043;SDS011;9654;52.302;8.120;2023-02-16T02:18:36;48.13;;;23.53;;
19043;SDS011;9654;52.302;8.120;2023-02-16T02:21:08;42.77;;;22.37;;
19043;SDS011;9654;52.302;8.120;2023-02-16T02:24:17;44.00;;;21.80;;
19043;SDS011;9654;52.302;8.120;2023-02-16T02:27:13;45.83;;;21.73;;
19043;SDS011;9654;52.302;8.120;2023-02-16T02:29:48;50.30;;;23.20;;
19043;SDS011;9654;52.302;8.120;2023-02-16T02:32:36;45.60;;;21.13;;
19043;SDS011;9654;52.302;8.120;2023-02-16T02:35:17;45.53;;;22.00;;
19043;SDS011;9654;52.302;8.120;2023-02-16T02:37:53;47.53;;;22.27;;
19043;SDS011;9654;52.302;8.120;2023-02-16T02:40:29;45.90;;;22.23;;
19043;SDS011;9654;52.302;8.120;2023-02-16T02:43:10;50.80;;;22.80;;
19043;SDS011;9654;52.302;8.120;2023-02-16T02:45:43;48.90;;;23.47;;
19043;SDS011;9654;52.302;8.120;2023-02-16T02:48:12;49.70;;;23.90;;
19043;SDS011;9654;52.302;8.120;2023-02-16T02:50:40;46.67;;;22.73;;
19043;SDS011;9654;52.302;8.120;2023-02-16T02:53:32;50.93;;;23.33;;
19043;SDS011;9654;52.302;8.120;2023-02-16T02:56:01;46.03;;;22.23;;
19043;SDS011;9654;52.302;8.120;2023-02-16T02:58:49;46.13;;;21.93;;
19043;SDS011;9654;52.302;8.120;2023-02-16T03:01:40;55.03;;;24.37;;
19043;SDS011;9654;52.302;8.120;2023-02-16T03:04:11;51.60;;;23.40;;
19043;SDS011;9654;52.302;8.120;2023-02-16T03:06:42;44.47;;;22.17;;
19043;SDS011;9654;52.302;8.120;2023-02-16T03:09:14;45.77;;;22.40;;
19043;SDS011;9654;52.302;8.120;2023-02-16T03:11:42;46.73;;;22.70;;
19043;SDS011;9654;52.302;8.120;2023-02-16T03:14:31;52.43;;;24.90;;
19043;SDS011;9654;52.302;8.120;2023-02-16T03:17:01;45.40;;;22.43;;
19043;SDS011;9654;52.302;8.120;2023-02-16T03:19:50;49.17;;;23.43;;
19043;SDS011;9654;52.302;8.120;2023-02-16T03:22:34;51.33;;;23.87;;
19043;SDS011;9654;52.302;8.120;2023-02-16T03:25:20;46.97;;;22.90;;
19043;SDS011;9654;52.302;8.120;2023-02-16T03:28:07;46.33;;;23.37;;
19043;SDS011;9654;52.302;8.120;2023-02-16T03:30:54;47.07;;;22.77;;
19043;SDS011;9654;52.302;8.120;2023-02-16T03:33:23;48.97;;;24.10;;
19043;SDS011;9654;52.302;8.120;2023-02-16T03:35:51;47.37;;;23.90;;
19043;SDS011;9654;52.302;8.120;2023-02-16T03:38:18;52.23;;;23.43;;
19043;SDS011;9654;52.302;8.120;2023-02-16T03:40:46;50.67;;;24.97;;
19043;SDS011;9654;52.302;8.120;2023-02-16T03:43:16;53.63;;;24.93;;
19043;SDS011;9654;52.302;8.120;2023-02-16T03:45:43;49.10;;;25.23;;
19043;SDS011;9654;52.302;8.120;2023-02-16T03:48:11;51.30;;;25.37;;
19043;SDS011;9654;52.302;8.120;2023-02-16T03:50:39;49.33;;;23.80;;
19043;SDS011;9654;52.302;8.120;2023-02-16T03:53:06;48.00;;;22.80;;
19043;SDS011;9654;52.302;8.120;2023-02-16T03:55:33;46.97;;;23.77;;
19043;SDS011;9654;52.302;8.120;2023-02-16T03:58:01;50.70;;;23.10;;
19043;SDS011;9654;52.302;8.120;2023-02-16T04:00:28;51.67;;;24.50;;
19043;SDS011;9654;52.302;8.120;2023-02-16T04:02:55;51.23;;;24.80;;
19043;SDS011;9654;52.302;8.120;2023-02-16T04:05:23;76.13;;;37.90;;
19043;SDS011;9654;52.302;8.120;2023-02-16T04:07:50;96.93;;;44.73;;
19043;SDS011;9654;52.302;8.120;2023-02-16T04:10:17;134.50;;;60.90;;
19043;SDS011;9654;52.302;8.120;2023-02-16T04:12:45;92.80;;;43.13;;
19043;SDS011;9654;52.302;8.120;2023-02-16T04:15:11;98.37;;;48.13;;
19043;SDS011;9654;52.302;8.120;2023-02-16T04:17:39;69.37;;;36.87;;
19043;SDS011;9654;52.302;8.120;2023-02-16T04:20:06;96.33;;;52.83;;
19043;SDS011;9654;52.302;8.120;2023-02-16T04:22:36;55.67;;;27.83;;
19043;SDS011;9654;52.302;8.120;2023-02-16T04:25:03;55.93;;;29.07;;
19043;SDS011;9654;52.302;8.120;2023-02-16T04:27:30;97.67;;;43.40;;
19043;SDS011;9654;52.302;8.120;2023-02-16T04:29:57;65.90;;;29.80;;
19043;SDS011;9654;52.302;8.120;2023-02-16T04:32:24;66.50;;;30.33;;
19043;SDS011;9654;52.302;8.120;2023-02-16T04:34:51;73.43;;;33.03;;
19043;SDS011;9654;52.302;8.120;2023-02-16T04:37:18;66.10;;;31.03;;
19043;SDS011;9654;52.302;8.120;2023-02-16T04:39:46;129.93;;;52.27;;
19043;SDS011;9654;52.302;8.120;2023-02-16T04:42:13;98.27;;;40.30;;
19043;SDS011;9654;52.302;8.120;2023-02-16T04:44:40;80.77;;;36.60;;
19043;SDS011;9654;52.302;8.120;2023-02-16T04:47:07;66.73;;;32.83;;
19043;SDS011;9654;52.302;8.120;2023-02-16T04:49:34;140.33;;;55.63;;
19043;SDS011;9654;52.302;8.120;2023-02-16T04:52:02;108.73;;;45.80;;
19043;SDS011;9654;52.302;8.120;2023-02-16T04:54:29;112.57;;;48.53;;
19043;SDS011;9654;52.302;8.120;2023-02-16T04:56:58;153.33;;;62.10;;
19043;SDS011;9654;52.302;8.120;2023-02-16T04:59:25;111.70;;;46.33;;
19043;SDS011;9654;52.302;8.120;2023-02-16T05:01:52;119.83;;;50.57;;
19043;SDS011;9654;52.302;8.120;2023-02-16T05:04:19;103.50;;;44.03;;
19043;SDS011;9654;52.302;8.120;2023-02-16T05:06:45;187.50;;;71.33;;
19043;SDS011;9654;52.302;8.120;2023-02-16T05:09:12;187.33;;;73.23;;
19043;SDS011;9654;52.302;8.120;2023-02-16T05:11:39;185.20;;;71.33;;
19043;SDS011;9654;52.302;8.120;2023-02-16T05:14:26;127.93;;;54.37;;
19043;SDS011;9654;52.302;8.120;2023-02-16T05:17:10;106.27;;;47.87;;
19043;SDS011;9654;52.302;8.120;2023-02-16T05:19:39;99.30;;;44.87;;
19043;SDS011;9654;52.302;8.120;2023-02-16T05:22:06;138.77;;;59.40;;
19043;SDS011;9654;52.302;8.120;2023-02-16T05:24:33;118.00;;;48.60;;
19043;SDS011;9654;52.302;8.120;2023-02-16T05:27:01;133.60;;;56.63;;
19043;SDS011;9654;52.302;8.120;2023-02-16T05:29:29;64.87;;;35.30;;
19043;SDS011;9654;52.302;8.120;2023-02-16T05:31:56;53.57;;;25.73;;
19043;SDS011;9654;52.302;8.120;2023-02-16T05:34:23;56.00;;;25.27;;
19043;SDS011;9654;52.302;8.120;2023-02-16T05:36:50;46.97;;;24.60;;
19043;SDS011;9654;52.302;8.120;2023-02-16T05:39:17;49.90;;;25.13;;
19043;SDS011;9654;52.302;8.120;2023-02-16T05:41:44;46.43;;;23.93;;
19043;SDS011;9654;52.302;8.120;2023-02-16T05:44:11;56.73;;;25.67;;
19043;SDS011;9654;52.302;8.120;2023-02-16T05:46:39;51.83;;;24.73;;
19043;SDS011;9654;52.302;8.120;2023-02-16T05:49:07;52.10;;;23.43;;
19043;SDS011;9654;52.302;8.120;2023-02-16T05:51:34;50.93;;;23.37;;
19043;SDS011;9654;52.302;8.120;2023-02-16T05:54:02;47.77;;;23.43;;
19043;SDS011;9654;52.302;8.120;2023-02-16T05:56:29;45.50;;;23.07;;
19043;SDS011;9654;52.302;8.120;2023-02-16T05:58:56;47.50;;;23.97;;
19043;SDS011;9654;52.302;8.120;2023-02-16T06:01:23;47.90;;;25.23;;
19043;SDS011;9654;52.302;8.120;2023-02-16T06:03:51;45.70;;;23.87;;
19043;SDS011;9654;52.302;8.120;2023-02-16T06:06:18;46.20;;;23.53;;
19043;SDS011;9654;52.302;8.120;2023-02-16T06:08:45;56.83;;;25.60;;
19043;SDS011;9654;52.302;8.120;2023-02-16T06:11:12;53.50;;;25.73;;
19043;SDS011;9654;52.302;8.120;2023-02-16T06:13:53;46.77;;;23.93;;
19043;SDS011;9654;52.302;8.120;2023-02-16T06:16:22;48.97;;;23.57;;
19043;SDS011;9654;52.302;8.120;2023-02-16T06:18:49;47.17;;;22.87;;
19043;SDS011;9654;52.302;8.120;2023-02-16T06:21:17;46.60;;;24.13;;
19043;SDS011;9654;52.302;8.120;2023-02-16T06:23:45;53.63;;;24.50;;
19043;SDS011;9654;52.302;8.120;2023-02-16T06:26:12;45.83;;;24.23;;
19043;SDS011;9654;52.302;8.120;2023-02-16T06:28:38;45.70;;;23.90;;
19043;SDS011;9654;52.302;8.120;2023-02-16T06:31:05;44.63;;;23.50;;
19043;SDS011;9654;52.302;8.120;2023-02-16T06:33:32;52.83;;;23.90;;
19043;SDS011;9654;52.302;8.120;2023-02-16T06:36:00;47.23;;;23.13;;
19043;SDS011;9654;52.302;8.120;2023-02-16T06:38:27;50.20;;;23.63;;
19043;SDS011;9654;52.302;8.120;2023-02-16T06:40:53;51.67;;;25.23;;
19043;SDS011;9654;52.302;8.120;2023-02-16T06:43:20;50.60;;;24.40;;
19043;SDS011;9654;52.302;8.120;2023-02-16T06:45:47;51.97;;;24.43;;
19043;SDS011;9654;52.302;8.120;2023-02-16T06:48:14;51.40;;;23.40;;
19043;SDS011;9654;52.302;8.120;2023-02-16T06:50:40;45.20;;;22.70;;
19043;SDS011;9654;52.302;8.120;2023-02-16T06:53:08;54.43;;;25.60;;
19043;SDS011;9654;52.302;8.120;2023-02-16T06:55:35;57.17;;;26.20;;
19043;SDS011;9654;52.302;8.120;2023-02-16T06:58:02;55.20;;;25.10;;
19043;SDS011;9654;52.302;8.120;2023-02-16T07:00:29;52.30;;;25.47;;
19043;SDS011;9654;52.302;8.120;2023-02-16T07:02:56;44.40;;;24.33;;
19043;SDS011;9654;52.302;8.120;2023-02-16T07:05:23;53.80;;;25.07;;
19043;SDS011;9654;52.302;8.120;2023-02-16T07:07:50;59.43;;;28.30;;
19043;SDS011;9654;52.302;8.120;2023-02-16T07:10:19;55.87;;;27.37;;
19043;SDS011;9654;52.302;8.120;2023-02-16T07:12:46;55.60;;;26.43;;
19043;SDS011;9654;52.302;8.120;2023-02-16T07:15:13;48.53;;;25.40;;
19043;SDS011;9654;52.302;8.120;2023-02-16T07:17:40;54.37;;;26.77;;
19043;SDS011;9654;52.302;8.120;2023-02-16T07:20:07;57.30;;;27.67;;
19043;SDS011;9654;52.302;8.120;2023-02-16T07:22:36;55.30;;;29.00;;
19043;SDS011;9654;52.302;8.120;2023-02-16T07:25:02;51.63;;;27.43;;
19043;SDS011;9654;52.302;8.120;2023-02-16T07:27:31;54.73;;;25.57;;
19043;SDS011;9654;52.302;8.120;2023-02-16T07:29:57;53.70;;;26.37;;
19043;SDS011;9654;52.302;8.120;2023-02-16T07:32:24;54.93;;;27.40;;
19043;SDS011;9654;52.302;8.120;2023-02-16T07:34:51;54.47;;;25.63;;
19043;SDS011;9654;52.302;8.120;2023-02-16T07:37:18;51.93;;;26.17;;
19043;SDS011;9654;52.302;8.120;2023-02-16T07:39:45;55.40;;;25.50;;
19043;SDS011;9654;52.302;8.120;2023-02-16T07:42:11;50.63;;;26.67;;
19043;SDS011;9654;52.302;8.120;2023-02-16T07:44:39;55.93;;;25.43;;
19043;SDS011;9654;52.302;8.120;2023-02-16T07:47:06;59.53;;;28.63;;
19043;SDS011;9654;52.302;8.120;2023-02-16T07:49:33;98.67;;;44.77;;
19043;SDS011;9654;52.302;8.120;2023-02-16T07:52:00;84.73;;;38.53;;
19043;SDS011;9654;52.302;8.120;2023-02-16T07:54:26;54.80;;;27.37;;
19043;SDS011;9654;52.302;8.120;2023-02-16T07:56:53;57.80;;;28.13;;
19043;SDS011;9654;52.302;8.120;2023-02-16T07:59:20;63.67;;;30.97;;
19043;SDS011;9654;52.302;8.120;2023-02-16T08:01:48;53.47;;;28.57;;
19043;SDS011;9654;52.302;8.120;2023-02-16T08:04:15;63.30;;;28.17;;
19043;SDS011;9654;52.302;8.120;2023-02-16T08:06:41;51.57;;;26.33;;
19043;SDS011;9654;52.302;8.120;2023-02-16T08:09:10;59.57;;;28.03;;
19043;SDS011;9654;52.302;8.120;2023-02-16T08:11:36;54.00;;;25.50;;
19043;SDS011;9654;52.302;8.120;2023-02-16T08:14:03;50.60;;;27.13;;
19043;SDS011;9654;52.302;8.120;2023-02-16T08:16:30;48.90;;;25.07;;
19043;SDS011;9654;52.302;8.120;2023-02-16T08:18:59;50.27;;;24.57;;
19043;SDS011;9654;52.302;8.120;2023-02-16T08:21:28;51.67;;;25.53;;
19043;SDS011;9654;52.302;8.120;2023-02-16T08:23:56;48.90;;;24.37;;
19043;SDS011;9654;52.302;8.120;2023-02-16T08:26:25;42.23;;;23.17;;
19043;SDS011;9654;52.302;8.120;2023-02-16T08:28:55;51.77;;;26.23;;
19043;SDS011;9654;52.302;8.120;2023-02-16T08:31:23;51.50;;;24.40;;
19043;SDS011;9654;52.302;8.120;2023-02-16T08:33:52;53.20;;;24.60;;
19043;SDS011;9654;52.302;8.120;2023-02-16T08:36:21;48.63;;;23.90;;
19043;SDS011;9654;52.302;8.120;2023-02-16T08:38:50;50.70;;;24.23;;
19043;SDS011;9654;52.302;8.120;2023-02-16T08:41:19;46.93;;;24.33;;
19043;SDS011;9654;52.302;8.120;2023-02-16T08:43:47;47.30;;;23.93;;
19043;SDS011;9654;52.302;8.120;2023-02-16T08:46:15;48.13;;;23.40;;
19043;SDS011;9654;52.302;8.120;2023-02-16T08:48:42;43.97;;;22.80;;
19043;SDS011;9654;52.302;8.120;2023-02-16T08:51:12;47.60;;;23.73;;
19043;SDS011;9654;52.302;8.120;2023-02-16T08:53:41;48.20;;;23.13;;
19043;SDS011;9654;52.302;8.120;2023-02-16T08:56:08;46.53;;;24.23;;
19043;SDS011;9654;52.302;8.120;2023-02-16T08:58:35;48.00;;;23.47;;
19043;SDS011;9654;52.302;8.120;2023-02-16T09:01:03;53.03;;;24.03;;
19043;SDS011;9654;52.302;8.120;2023-02-16T09:03:30;46.50;;;23.70;;
19043;SDS011;9654;52.302;8.120;2023-02-16T09:05:59;45.87;;;23.20;;
19043;SDS011;9654;52.302;8.120;2023-02-16T09:08:27;45.23;;;22.03;;
19043;SDS011;9654;52.302;8.120;2023-02-16T09:10:56;48.03;;;22.30;;
19043;SDS011;9654;52.302;8.120;2023-02-16T09:13:26;42.87;;;21.50;;
19043;SDS011;9654;52.302;8.120;2023-02-16T09:15:53;43.53;;;22.30;;
19043;SDS011;9654;52.302;8.120;2023-02-16T09:18:20;49.03;;;24.10;;
19043;SDS011;9654;52.302;8.120;2023-02-16T09:20:48;45.10;;;21.67;;
19043;SDS011;9654;52.302;8.120;2023-02-16T09:23:15;45.47;;;20.80;;
19043;SDS011;9654;52.302;8.120;2023-02-16T09:25:43;40.80;;;21.93;;
19043;SDS011;9654;52.302;8.120;2023-02-16T09:28:11;46.23;;;22.33;;
19043;SDS011;9654;52.302;8.120;2023-02-16T09:30:37;47.43;;;22.70;;
19043;SDS011;9654;52.302;8.120;2023-02-16T09:33:05;41.17;;;22.40;;
19043;SDS011;9654;52.302;8.120;2023-02-16T09:35:31;44.50;;;21.77;;
19043;SDS011;9654;52.302;8.120;2023-02-16T09:37:58;47.27;;;21.80;;
19043;SDS011;9654;52.302;8.120;2023-02-16T09:40:26;39.07;;;21.07;;
19043;SDS011;9654;52.302;8.120;2023-02-16T09:42:56;41.10;;;21.23;;
19043;SDS011;9654;52.302;8.120;2023-02-16T09:45:37;42.03;;;21.37;;
19043;SDS011;9654;52.302;8.120;2023-02-16T09:48:08;45.10;;;23.27;;
19043;SDS011;9654;52.302;8.120;2023-02-16T09:50:43;45.97;;;22.13;;
19043;SDS011;9654;52.302;8.120;2023-02-16T09:53:13;47.67;;;22.13;;
19043;SDS011;9654;52.302;8.120;2023-02-16T09:55:49;43.27;;;23.13;;
19043;SDS011;9654;52.302;8.120;2023-02-16T09:58:24;41.50;;;20.90;;
19043;SDS011;9654;52.302;8.120;2023-02-16T10:00:59;41.40;;;21.30;;
19043;SDS011;9654;52.302;8.120;2023-02-16T10:03:35;46.93;;;21.57;;
19043;SDS011;9654;52.302;8.120;2023-02-16T10:06:20;39.00;;;21.37;;
19043;SDS011;9654;52.302;8.120;2023-02-16T10:08:54;43.53;;;21.13;;
19043;SDS011;9654;52.302;8.120;2023-02-16T10:11:24;41.97;;;21.50;;
19043;SDS011;9654;52.302;8.120;2023-02-16T10:14:07;43.60;;;22.57;;
19043;SDS011;9654;52.302;8.120;2023-02-16T10:16:43;41.60;;;21.97;;
19043;SDS011;9654;52.302;8.120;2023-02-16T10:19:16;37.97;;;20.03;;
19043;SDS011;9654;52.302;8.120;2023-02-16T10:21:46;44.97;;;21.40;;
19043;SDS011;9654;52.302;8.120;2023-02-16T10:24:16;42.60;;;21.60;;
19043;SDS011;9654;52.302;8.120;2023-02-16T10:26:44;47.47;;;21.90;;
19043;SDS011;9654;52.302;8.120;2023-02-16T10:29:14;44.77;;;23.20;;
19043;SDS011;9654;52.302;8.120;2023-02-16T10:31:47;47.70;;;21.57;;
19043;SDS011;9654;52.302;8.120;2023-02-16T10:34:21;44.40;;;22.13;;
19043;SDS011;9654;52.302;8.120;2023-02-16T10:37:11;40.23;;;22.97;;
19043;SDS011;9654;52.302;8.120;2023-02-16T10:39:45;39.40;;;21.87;;
19043;SDS011;9654;52.302;8.120;2023-02-16T10:42:20;43.90;;;22.13;;
19043;SDS011;9654;52.302;8.120;2023-02-16T10:44:53;44.30;;;22.47;;
19043;SDS011;9654;52.302;8.120;2023-02-16T10:47:27;42.30;;;21.60;;
19043;SDS011;9654;52.302;8.120;2023-02-16T10:49:58;39.97;;;20.03;;
19043;SDS011;9654;52.302;8.120;2023-02-16T10:52:25;42.07;;;20.87;;
19043;SDS011;9654;52.302;8.120;2023-02-16T10:54:55;43.03;;;22.47;;
19043;SDS011;9654;52.302;8.120;2023-02-16T10:57:24;41.67;;;21.13;;
19043;SDS011;9654;52.302;8.120;2023-02-16T10:59:52;46.30;;;21.60;;
19043;SDS011;9654;52.302;8.120;2023-02-16T11:02:22;44.80;;;22.57;;
19043;SDS011;9654;52.302;8.120;2023-02-16T11:04:52;42.40;;;21.70;;
19043;SDS011;9654;52.302;8.120;2023-02-16T11:07:21;42.80;;;22.50;;
19043;SDS011;9654;52.302;8.120;2023-02-16T11:09:49;38.90;;;21.93;;
19043;SDS011;9654;52.302;8.120;2023-02-16T11:12:25;46.23;;;23.40;;
19043;SDS011;9654;52.302;8.120;2023-02-16T11:14:54;42.07;;;21.97;;
19043;SDS011;9654;52.302;8.120;2023-02-16T11:17:24;45.70;;;23.50;;
19043;SDS011;9654;52.302;8.120;2023-02-16T11:19:54;42.53;;;22.37;;
19043;SDS011;9654;52.302;8.120;2023-02-16T11:22:27;43.40;;;22.53;;
19043;SDS011;9654;52.302;8.120;2023-02-16T11:25:02;44.37;;;23.70;;
19043;SDS011;9654;52.302;8.120;2023-02-16T11:27:48;40.57;;;21.43;;
19043;SDS011;9654;52.302;8.120;2023-02-16T11:30:18;41.13;;;22.03;;
19043;SDS011;9654;52.302;8.120;2023-02-16T11:32:53;44.37;;;22.43;;
19043;SDS011;9654;52.302;8.120;2023-02-16T11:35:22;41.73;;;21.40;;
19043;SDS011;9654;52.302;8.120;2023-02-16T11:37:49;40.03;;;21.97;;
19043;SDS011;9654;52.302;8.120;2023-02-16T11:40:18;45.23;;;23.37;;
19043;SDS011;9654;52.302;8.120;2023-02-16T11:42:48;38.57;;;22.23;;
19043;SDS011;9654;52.302;8.120;2023-02-16T11:45:22;43.73;;;22.50;;
19043;SDS011;9654;52.302;8.120;2023-02-16T11:47:52;41.57;;;21.87;;
19043;SDS011;9654;52.302;8.120;2023-02-16T11:50:23;45.43;;;22.63;;
19043;SDS011;9654;52.302;8.120;2023-02-16T11:52:53;45.30;;;21.93;;
19043;SDS011;9654;52.302;8.120;2023-02-16T11:55:23;38.80;;;21.67;;
19043;SDS011;9654;52.302;8.120;2023-02-16T11:57:58;41.47;;;22.67;;
19043;SDS011;9654;52.302;8.120;2023-02-16T12:00:40;40.83;;;21.60;;
19043;SDS011;9654;52.302;8.120;2023-02-16T12:03:25;42.27;;;22.57;;
19043;SDS011;9654;52.302;8.120;2023-02-16T12:06:04;43.10;;;22.87;;
19043;SDS011;9654;52.302;8.120;2023-02-16T12:08:50;41.47;;;23.20;;
19043;SDS011;9654;52.302;8.120;2023-02-16T12:11:30;42.87;;;23.23;;
19043;SDS011;9654;52.302;8.120;2023-02-16T12:14:04;40.23;;;21.90;;
19043;SDS011;9654;52.302;8.120;2023-02-16T12:16:45;43.40;;;22.47;;
19043;SDS011;9654;52.302;8.120;2023-02-16T12:19:22;45.27;;;23.80;;
19043;SDS011;9654;52.302;8.120;2023-02-16T12:21:59;41.17;;;22.13;;
19043;SDS011;9654;52.302;8.120;2023-02-16T12:24:37;40.97;;;23.07;;
19043;SDS011;9654;52.302;8.120;2023-02-16T12:27:11;44.73;;;22.83;;
19043;SDS011;9654;52.302;8.120;2023-02-16T12:29:43;45.03;;;23.67;;
19043;SDS011;9654;52.302;8.120;2023-02-16T12:32:24;43.10;;;22.80;;
19043;SDS011;9654;52.302;8.120;2023-02-16T12:35:06;43.73;;;22.13;;
19043;SDS011;9654;52.302;8.120;2023-02-16T12:37:46;41.20;;;21.90;;
19043;SDS011;9654;52.302;8.120;2023-02-16T12:40:21;45.30;;;22.83;;
19043;SDS011;9654;52.302;8.120;2023-02-16T12:42:56;42.37;;;22.10;;
19043;SDS011;9654;52.302;8.120;2023-02-16T12:45:29;42.63;;;21.73;;
19043;SDS011;9654;52.302;8.120;2023-02-16T12:48:01;40.93;;;23.27;;
19043;SDS011;9654;52.302;8.120;2023-02-16T12:50:40;38.83;;;22.03;;
19043;SDS011;9654;52.302;8.120;2023-02-16T12:53:11;40.23;;;22.93;;
19043;SDS011;9654;52.302;8.120;2023-02-16T12:55:46;41.13;;;22.20;;
19043;SDS011;9654;52.302;8.120;2023-02-16T12:58:15;40.63;;;22.10;;
19043;SDS011;9654;52.302;8.120;2023-02-16T13:00:46;40.13;;;20.83;;
19043;SDS011;9654;52.302;8.120;2023-02-16T13:03:21;44.93;;;23.13;;
19043;SDS011;9654;52.302;8.120;2023-02-16T13:05:55;43.03;;;23.77;;
19043;SDS011;9654;52.302;8.120;2023-02-16T13:08:30;39.47;;;21.57;;
19043;SDS011;9654;52.302;8.120;2023-02-16T13:11:03;39.33;;;22.10;;
19043;SDS011;9654;52.302;8.120;2023-02-16T13:13:36;45.67;;;23.10;;
19043;SDS011;9654;52.302;8.120;2023-02-16T13:16:05;47.30;;;23.97;;
19043;SDS011;9654;52.302;8.120;2023-02-16T13:18:38;47.83;;;24.10;;
19043;SDS011;9654;52.302;8.120;2023-02-16T13:21:09;47.77;;;23.80;;
19043;SDS011;9654;52.302;8.120;2023-02-16T13:23:53;46.43;;;24.33;;
19043;SDS011;9654;52.302;8.120;2023-02-16T13:26:34;49.53;;;24.30;;
19043;SDS011;9654;52.302;8.120;2023-02-16T13:29:27;48.77;;;23.77;;
19043;SDS011;9654;52.302;8.120;2023-02-16T13:32:08;47.30;;;24.53;;
19043;SDS011;9654;52.302;8.120;2023-02-16T13:34:54;43.70;;;23.07;;
19043;SDS011;9654;52.302;8.120;2023-02-16T13:37:48;49.57;;;23.13;;
19043;SDS011;9654;52.302;8.120;2023-02-16T13:40:30;46.40;;;24.30;;
19043;SDS011;9654;52.302;8.120;2023-02-16T13:43:12;45.53;;;23.60;;
19043;SDS011;9654;52.302;8.120;2023-02-16T13:45:48;46.93;;;24.47;;
19043;SDS011;9654;52.302;8.120;2023-02-16T13:48:20;44.43;;;24.37;;
19043;SDS011;9654;52.302;8.120;2023-02-16T13:54:37;49.03;;;24.93;;
19043;SDS011;9654;52.302;8.120;2023-02-16T14:03:19;46.07;;;23.70;;
19043;SDS011;9654;52.302;8.120;2023-02-16T14:10:10;52.57;;;25.13;;
19043;SDS011;9654;52.302;8.120;2023-02-16T14:16:08;55.10;;;30.30;;
19043;SDS011;9654;52.302;8.120;2023-02-16T14:18:43;54.97;;;29.57;;
19043;SDS011;9654;52.302;8.120;2023-02-16T16:31:07;61.00;;;31.27;;
19043;SDS011;9654;52.302;8.120;2023-02-16T16:33:51;67.37;;;33.63;;
